sensor_id;sensor_type;location;lat;lon;timestamp;P1;durP1;ratioP1;P2;durP2;ratioP2
20721;SDS011;10522;52.198;9.890;2024-03-17T00:02:17;7.57;;;2.53;;
20721;SDS011;10522;52.198;9.890;2024-03-17T00:04:43;9.30;;;3.00;;
20721;SDS011;10522;52.198;9.890;2024-03-17T00:07:10;8.03;;;2.90;;
20721;SDS011;10522;52.198;9.890;2024-03-17T00:09:36;9.00;;;3.13;;
20721;SDS011;10522;52.198;9.890;2024-03-17T00:12:02;6.00;;;3.10;;
20721;SDS011;10522;52.198;9.890;2024-03-17T00:14:28;5.97;;;3.03;;
20721;SDS011;10522;52.198;9.890;2024-03-17T00:16:54;9.00;;;3.00;;
20721;SDS011;10522;52.198;9.890;2024-03-17T00:19:19;6.73;;;2.83;;
20721;SDS011;10522;52.198;9.890;2024-03-17T00:21:47;6.93;;;3.00;;
20721;SDS011;10522;52.198;9.890;2024-03-17T00:24:15;5.57;;;2.97;;
20721;SDS011;10522;52.198;9.890;2024-03-17T00:26:41;6.93;;;3.60;;
20721;SDS011;10522;52.198;9.890;2024-03-17T00:29:07;6.23;;;3.20;;
20721;SDS011;10522;52.198;9.890;2024-03-17T00:31:33;5.63;;;2.93;;
20721;SDS011;10522;52.198;9.890;2024-03-17T00:33:58;9.13;;;4.83;;
20721;SDS011;10522;52.198;9.890;2024-03-17T00:36:24;14.77;;;3.93;;
20721;SDS011;10522;52.198;9.890;2024-03-17T00:38:50;6.53;;;3.43;;
20721;SDS011;10522;52.198;9.890;2024-03-17T00:41:17;7.17;;;3.80;;
20721;SDS011;10522;52.198;9.890;2024-03-17T00:43:44;8.93;;;3.73;;
20721;SDS011;10522;52.198;9.890;2024-03-17T00:46:09;7.03;;;4.10;;
20721;SDS011;10522;52.198;9.890;2024-03-17T00:48:35;11.47;;;4.20;;
20721;SDS011;10522;52.198;9.890;2024-03-17T00:51:01;9.20;;;3.87;;
20721;SDS011;10522;52.198;9.890;2024-03-17T00:53:27;6.60;;;3.43;;
20721;SDS011;10522;52.198;9.890;2024-03-17T00:55:54;10.33;;;3.80;;
20721;SDS011;10522;52.198;9.890;2024-03-17T00:58:23;11.60;;;3.90;;
20721;SDS011;10522;52.198;9.890;2024-03-17T01:00:49;8.63;;;3.80;;
20721;SDS011;10522;52.198;9.890;2024-03-17T01:03:15;9.23;;;3.33;;
20721;SDS011;10522;52.198;9.890;2024-03-17T01:05:41;11.40;;;3.37;;
20721;SDS011;10522;52.198;9.890;2024-03-17T01:08:09;5.80;;;3.23;;
20721;SDS011;10522;52.198;9.890;2024-03-17T01:10:38;11.80;;;3.90;;
20721;SDS011;10522;52.198;9.890;2024-03-17T01:13:05;4.87;;;3.17;;
20721;SDS011;10522;52.198;9.890;2024-03-17T01:15:32;6.47;;;3.57;;
20721;SDS011;10522;52.198;9.890;2024-03-17T01:17:58;10.83;;;4.40;;
20721;SDS011;10522;52.198;9.890;2024-03-17T01:20:24;12.73;;;4.10;;
20721;SDS011;10522;52.198;9.890;2024-03-17T01:22:50;6.87;;;3.50;;
20721;SDS011;10522;52.198;9.890;2024-03-17T01:25:17;7.37;;;3.37;;
20721;SDS011;10522;52.198;9.890;2024-03-17T01:27:43;9.30;;;3.60;;
20721;SDS011;10522;52.198;9.890;2024-03-17T01:30:12;9.90;;;3.67;;
20721;SDS011;10522;52.198;9.890;2024-03-17T01:32:38;16.57;;;3.57;;
20721;SDS011;10522;52.198;9.890;2024-03-17T01:35:04;8.37;;;3.30;;
20721;SDS011;10522;52.198;9.890;2024-03-17T01:37:33;7.00;;;3.30;;
20721;SDS011;10522;52.198;9.890;2024-03-17T01:39:58;6.97;;;3.13;;
20721;SDS011;10522;52.198;9.890;2024-03-17T01:42:24;7.97;;;3.40;;
20721;SDS011;10522;52.198;9.890;2024-03-17T01:44:50;8.03;;;3.10;;
20721;SDS011;10522;52.198;9.890;2024-03-17T01:47:16;7.40;;;3.43;;
20721;SDS011;10522;52.198;9.890;2024-03-17T01:49:45;9.77;;;3.40;;
20721;SDS011;10522;52.198;9.890;2024-03-17T01:52:12;10.10;;;3.30;;
20721;SDS011;10522;52.198;9.890;2024-03-17T01:54:39;9.83;;;3.67;;
20721;SDS011;10522;52.198;9.890;2024-03-17T01:57:06;9.60;;;3.00;;
20721;SDS011;10522;52.198;9.890;2024-03-17T01:59:31;8.87;;;3.70;;
20721;SDS011;10522;52.198;9.890;2024-03-17T02:01:57;7.17;;;3.23;;
20721;SDS011;10522;52.198;9.890;2024-03-17T02:04:23;11.57;;;3.30;;
20721;SDS011;10522;52.198;9.890;2024-03-17T02:06:49;8.77;;;3.57;;
20721;SDS011;10522;52.198;9.890;2024-03-17T02:09:14;9.27;;;3.50;;
20721;SDS011;10522;52.198;9.890;2024-03-17T02:11:40;9.43;;;3.23;;
20721;SDS011;10522;52.198;9.890;2024-03-17T02:14:07;16.63;;;3.60;;
20721;SDS011;10522;52.198;9.890;2024-03-17T02:16:33;8.67;;;3.40;;
20721;SDS011;10522;52.198;9.890;2024-03-17T02:18:58;6.33;;;3.97;;
20721;SDS011;10522;52.198;9.890;2024-03-17T02:21:25;10.43;;;3.83;;
20721;SDS011;10522;52.198;9.890;2024-03-17T02:23:55;11.83;;;4.20;;
20721;SDS011;10522;52.198;9.890;2024-03-17T02:26:21;11.57;;;3.83;;
20721;SDS011;10522;52.198;9.890;2024-03-17T02:28:48;8.70;;;3.23;;
20721;SDS011;10522;52.198;9.890;2024-03-17T02:31:19;6.20;;;3.20;;
20721;SDS011;10522;52.198;9.890;2024-03-17T02:33:47;10.20;;;3.77;;
20721;SDS011;10522;52.198;9.890;2024-03-17T02:36:13;8.03;;;3.27;;
20721;SDS011;10522;52.198;9.890;2024-03-17T02:38:39;7.43;;;3.53;;
20721;SDS011;10522;52.198;9.890;2024-03-17T02:41:23;6.77;;;3.40;;
20721;SDS011;10522;52.198;9.890;2024-03-17T02:43:49;7.83;;;3.73;;
20721;SDS011;10522;52.198;9.890;2024-03-17T02:46:15;11.23;;;3.70;;
20721;SDS011;10522;52.198;9.890;2024-03-17T02:48:43;10.03;;;4.10;;
20721;SDS011;10522;52.198;9.890;2024-03-17T02:51:15;8.83;;;3.70;;
20721;SDS011;10522;52.198;9.890;2024-03-17T02:53:43;9.17;;;3.60;;
20721;SDS011;10522;52.198;9.890;2024-03-17T02:56:12;8.57;;;3.60;;
20721;SDS011;10522;52.198;9.890;2024-03-17T02:58:42;8.67;;;3.60;;
20721;SDS011;10522;52.198;9.890;2024-03-17T03:01:09;16.40;;;3.40;;
20721;SDS011;10522;52.198;9.890;2024-03-17T03:03:35;5.97;;;3.00;;
20721;SDS011;10522;52.198;9.890;2024-03-17T03:06:01;13.77;;;3.67;;
20721;SDS011;10522;52.198;9.890;2024-03-17T03:08:29;10.20;;;3.30;;
20721;SDS011;10522;52.198;9.890;2024-03-17T03:10:55;10.17;;;4.07;;
20721;SDS011;10522;52.198;9.890;2024-03-17T03:13:21;10.30;;;4.13;;
20721;SDS011;10522;52.198;9.890;2024-03-17T03:15:48;9.87;;;3.67;;
20721;SDS011;10522;52.198;9.890;2024-03-17T03:18:14;8.07;;;3.30;;
20721;SDS011;10522;52.198;9.890;2024-03-17T03:20:40;5.83;;;3.93;;
20721;SDS011;10522;52.198;9.890;2024-03-17T03:23:06;10.87;;;3.80;;
20721;SDS011;10522;52.198;9.890;2024-03-17T03:25:32;7.83;;;4.20;;
20721;SDS011;10522;52.198;9.890;2024-03-17T03:27:57;6.27;;;2.90;;
20721;SDS011;10522;52.198;9.890;2024-03-17T03:30:24;11.60;;;2.97;;
20721;SDS011;10522;52.198;9.890;2024-03-17T03:32:49;9.47;;;3.53;;
20721;SDS011;10522;52.198;9.890;2024-03-17T03:35:15;13.20;;;3.70;;
20721;SDS011;10522;52.198;9.890;2024-03-17T03:37:41;8.43;;;3.47;;
20721;SDS011;10522;52.198;9.890;2024-03-17T03:40:10;8.07;;;3.77;;
20721;SDS011;10522;52.198;9.890;2024-03-17T03:42:45;9.97;;;3.63;;
20721;SDS011;10522;52.198;9.890;2024-03-17T03:45:10;11.80;;;3.20;;
20721;SDS011;10522;52.198;9.890;2024-03-17T03:47:39;10.63;;;4.87;;
20721;SDS011;10522;52.198;9.890;2024-03-17T03:50:14;6.47;;;3.10;;
20721;SDS011;10522;52.198;9.890;2024-03-17T03:52:40;7.20;;;3.77;;
20721;SDS011;10522;52.198;9.890;2024-03-17T03:55:07;8.30;;;3.13;;
20721;SDS011;10522;52.198;9.890;2024-03-17T03:57:35;11.90;;;3.27;;
20721;SDS011;10522;52.198;9.890;2024-03-17T04:00:02;9.13;;;3.13;;
20721;SDS011;10522;52.198;9.890;2024-03-17T04:02:41;9.23;;;3.47;;
20721;SDS011;10522;52.198;9.890;2024-03-17T04:05:07;7.40;;;3.70;;
20721;SDS011;10522;52.198;9.890;2024-03-17T04:07:34;10.37;;;3.80;;
20721;SDS011;10522;52.198;9.890;2024-03-17T04:10:01;6.83;;;2.83;;
20721;SDS011;10522;52.198;9.890;2024-03-17T04:12:27;9.17;;;3.07;;
20721;SDS011;10522;52.198;9.890;2024-03-17T04:14:53;10.40;;;3.20;;
20721;SDS011;10522;52.198;9.890;2024-03-17T04:17:20;10.50;;;3.70;;
20721;SDS011;10522;52.198;9.890;2024-03-17T04:19:46;7.70;;;3.23;;
20721;SDS011;10522;52.198;9.890;2024-03-17T04:22:14;11.37;;;3.90;;
20721;SDS011;10522;52.198;9.890;2024-03-17T04:24:40;7.17;;;3.03;;
20721;SDS011;10522;52.198;9.890;2024-03-17T04:27:06;10.97;;;3.37;;
20721;SDS011;10522;52.198;9.890;2024-03-17T04:29:31;10.90;;;3.80;;
20721;SDS011;10522;52.198;9.890;2024-03-17T04:31:57;10.13;;;3.13;;
20721;SDS011;10522;52.198;9.890;2024-03-17T04:34:22;8.00;;;3.27;;
20721;SDS011;10522;52.198;9.890;2024-03-17T04:36:48;6.63;;;3.37;;
20721;SDS011;10522;52.198;9.890;2024-03-17T04:39:14;10.00;;;4.20;;
20721;SDS011;10522;52.198;9.890;2024-03-17T04:41:40;7.77;;;3.53;;
20721;SDS011;10522;52.198;9.890;2024-03-17T04:44:10;6.73;;;3.37;;
20721;SDS011;10522;52.198;9.890;2024-03-17T04:46:35;7.13;;;3.13;;
20721;SDS011;10522;52.198;9.890;2024-03-17T04:49:01;7.83;;;3.03;;
20721;SDS011;10522;52.198;9.890;2024-03-17T04:51:28;5.87;;;3.10;;
20721;SDS011;10522;52.198;9.890;2024-03-17T04:53:54;9.53;;;4.20;;
20721;SDS011;10522;52.198;9.890;2024-03-17T04:56:20;8.50;;;3.00;;
20721;SDS011;10522;52.198;9.890;2024-03-17T04:58:47;9.67;;;3.33;;
20721;SDS011;10522;52.198;9.890;2024-03-17T05:01:13;12.27;;;3.80;;
20721;SDS011;10522;52.198;9.890;2024-03-17T05:03:38;8.37;;;3.43;;
20721;SDS011;10522;52.198;9.890;2024-03-17T05:06:04;3.43;;;3.07;;
20721;SDS011;10522;52.198;9.890;2024-03-17T05:08:31;10.60;;;3.23;;
20721;SDS011;10522;52.198;9.890;2024-03-17T05:10:59;8.23;;;3.20;;
20721;SDS011;10522;52.198;9.890;2024-03-17T05:13:29;4.30;;;3.00;;
20721;SDS011;10522;52.198;9.890;2024-03-17T05:15:56;7.43;;;3.50;;
20721;SDS011;10522;52.198;9.890;2024-03-17T05:18:22;7.67;;;3.30;;
20721;SDS011;10522;52.198;9.890;2024-03-17T05:20:59;5.77;;;3.60;;
20721;SDS011;10522;52.198;9.890;2024-03-17T05:23:26;8.63;;;3.13;;
20721;SDS011;10522;52.198;9.890;2024-03-17T05:25:53;9.93;;;3.30;;
20721;SDS011;10522;52.198;9.890;2024-03-17T05:28:20;4.93;;;2.97;;
20721;SDS011;10522;52.198;9.890;2024-03-17T05:30:45;11.53;;;2.87;;
20721;SDS011;10522;52.198;9.890;2024-03-17T05:33:13;4.70;;;3.10;;
20721;SDS011;10522;52.198;9.890;2024-03-17T05:35:38;5.50;;;3.10;;
20721;SDS011;10522;52.198;9.890;2024-03-17T05:38:04;8.63;;;4.20;;
20721;SDS011;10522;52.198;9.890;2024-03-17T05:40:30;8.90;;;3.37;;
20721;SDS011;10522;52.198;9.890;2024-03-17T05:42:58;12.03;;;4.50;;
20721;SDS011;10522;52.198;9.890;2024-03-17T05:45:25;7.47;;;3.77;;
20721;SDS011;10522;52.198;9.890;2024-03-17T05:47:50;13.37;;;3.73;;
20721;SDS011;10522;52.198;9.890;2024-03-17T05:50:16;7.80;;;4.37;;
20721;SDS011;10522;52.198;9.890;2024-03-17T05:52:41;11.60;;;3.83;;
20721;SDS011;10522;52.198;9.890;2024-03-17T05:55:07;11.87;;;4.20;;
20721;SDS011;10522;52.198;9.890;2024-03-17T05:57:33;10.83;;;4.20;;
20721;SDS011;10522;52.198;9.890;2024-03-17T05:59:59;8.93;;;4.00;;
20721;SDS011;10522;52.198;9.890;2024-03-17T06:02:24;11.33;;;4.60;;
20721;SDS011;10522;52.198;9.890;2024-03-17T06:04:50;9.73;;;4.60;;
20721;SDS011;10522;52.198;9.890;2024-03-17T06:07:16;11.97;;;4.83;;
20721;SDS011;10522;52.198;9.890;2024-03-17T06:09:41;9.23;;;4.37;;
20721;SDS011;10522;52.198;9.890;2024-03-17T06:12:07;15.27;;;6.03;;
20721;SDS011;10522;52.198;9.890;2024-03-17T06:14:33;6.73;;;3.87;;
20721;SDS011;10522;52.198;9.890;2024-03-17T06:16:59;9.17;;;4.20;;
20721;SDS011;10522;52.198;9.890;2024-03-17T06:19:25;12.27;;;5.20;;
20721;SDS011;10522;52.198;9.890;2024-03-17T06:21:50;13.50;;;4.40;;
20721;SDS011;10522;52.198;9.890;2024-03-17T06:24:16;10.63;;;4.10;;
20721;SDS011;10522;52.198;9.890;2024-03-17T06:26:42;9.50;;;4.27;;
20721;SDS011;10522;52.198;9.890;2024-03-17T06:29:08;10.27;;;3.80;;
20721;SDS011;10522;52.198;9.890;2024-03-17T06:31:33;8.47;;;4.57;;
20721;SDS011;10522;52.198;9.890;2024-03-17T06:33:59;12.67;;;4.37;;
20721;SDS011;10522;52.198;9.890;2024-03-17T06:36:25;10.97;;;5.00;;
20721;SDS011;10522;52.198;9.890;2024-03-17T06:38:50;9.90;;;5.13;;
20721;SDS011;10522;52.198;9.890;2024-03-17T06:41:16;6.77;;;4.07;;
20721;SDS011;10522;52.198;9.890;2024-03-17T06:43:42;7.23;;;3.93;;
20721;SDS011;10522;52.198;9.890;2024-03-17T06:46:08;9.67;;;4.23;;
20721;SDS011;10522;52.198;9.890;2024-03-17T06:48:34;9.47;;;4.27;;
20721;SDS011;10522;52.198;9.890;2024-03-17T06:51:00;7.53;;;4.03;;
20721;SDS011;10522;52.198;9.890;2024-03-17T06:53:26;8.63;;;3.80;;
20721;SDS011;10522;52.198;9.890;2024-03-17T06:55:52;9.03;;;4.13;;
20721;SDS011;10522;52.198;9.890;2024-03-17T06:58:22;6.53;;;4.10;;
20721;SDS011;10522;52.198;9.890;2024-03-17T07:00:52;8.10;;;4.10;;
20721;SDS011;10522;52.198;9.890;2024-03-17T07:03:20;8.43;;;4.07;;
20721;SDS011;10522;52.198;9.890;2024-03-17T07:05:51;13.93;;;5.00;;
20721;SDS011;10522;52.198;9.890;2024-03-17T07:08:18;10.60;;;4.73;;
20721;SDS011;10522;52.198;9.890;2024-03-17T07:10:54;16.20;;;4.53;;
20721;SDS011;10522;52.198;9.890;2024-03-17T07:13:24;8.77;;;4.37;;
20721;SDS011;10522;52.198;9.890;2024-03-17T07:15:50;11.77;;;4.20;;
20721;SDS011;10522;52.198;9.890;2024-03-17T07:18:20;14.63;;;5.10;;
20721;SDS011;10522;52.198;9.890;2024-03-17T07:20:57;10.80;;;4.70;;
20721;SDS011;10522;52.198;9.890;2024-03-17T07:23:39;6.73;;;4.37;;
20721;SDS011;10522;52.198;9.890;2024-03-17T07:26:22;9.03;;;4.50;;
20721;SDS011;10522;52.198;9.890;2024-03-17T07:28:48;8.80;;;4.43;;
20721;SDS011;10522;52.198;9.890;2024-03-17T07:31:16;10.63;;;5.07;;
20721;SDS011;10522;52.198;9.890;2024-03-17T07:33:46;12.87;;;4.77;;
20721;SDS011;10522;52.198;9.890;2024-03-17T07:36:15;11.40;;;5.00;;
20721;SDS011;10522;52.198;9.890;2024-03-17T07:38:41;9.30;;;4.80;;
20721;SDS011;10522;52.198;9.890;2024-03-17T07:41:08;15.03;;;5.20;;
20721;SDS011;10522;52.198;9.890;2024-03-17T07:43:37;9.63;;;4.70;;
20721;SDS011;10522;52.198;9.890;2024-03-17T07:46:08;12.73;;;5.10;;
20721;SDS011;10522;52.198;9.890;2024-03-17T07:48:41;8.87;;;4.03;;
20721;SDS011;10522;52.198;9.890;2024-03-17T07:51:12;9.97;;;5.27;;
20721;SDS011;10522;52.198;9.890;2024-03-17T07:53:39;10.03;;;4.77;;
20721;SDS011;10522;52.198;9.890;2024-03-17T07:56:11;10.37;;;4.97;;
20721;SDS011;10522;52.198;9.890;2024-03-17T07:58:41;10.07;;;4.20;;
20721;SDS011;10522;52.198;9.890;2024-03-17T08:01:08;7.30;;;4.70;;
20721;SDS011;10522;52.198;9.890;2024-03-17T08:03:39;11.37;;;5.07;;
20721;SDS011;10522;52.198;9.890;2024-03-17T08:06:21;15.10;;;4.77;;
20721;SDS011;10522;52.198;9.890;2024-03-17T08:08:47;9.20;;;5.07;;
20721;SDS011;10522;52.198;9.890;2024-03-17T08:11:17;14.60;;;5.63;;
20721;SDS011;10522;52.198;9.890;2024-03-17T08:13:47;13.23;;;5.03;;
20721;SDS011;10522;52.198;9.890;2024-03-17T08:16:16;12.40;;;4.97;;
20721;SDS011;10522;52.198;9.890;2024-03-17T08:18:44;14.10;;;5.20;;
20721;SDS011;10522;52.198;9.890;2024-03-17T08:21:12;14.93;;;4.93;;
20721;SDS011;10522;52.198;9.890;2024-03-17T08:23:39;16.57;;;5.43;;
20721;SDS011;10522;52.198;9.890;2024-03-17T08:26:17;11.73;;;5.27;;
20721;SDS011;10522;52.198;9.890;2024-03-17T08:28:44;13.73;;;4.87;;
20721;SDS011;10522;52.198;9.890;2024-03-17T08:31:12;18.43;;;5.10;;
20721;SDS011;10522;52.198;9.890;2024-03-17T08:33:40;14.03;;;5.37;;
20721;SDS011;10522;52.198;9.890;2024-03-17T08:36:07;14.23;;;4.40;;
20721;SDS011;10522;52.198;9.890;2024-03-17T08:38:34;11.17;;;5.43;;
20721;SDS011;10522;52.198;9.890;2024-03-17T08:41:07;16.57;;;4.63;;
20721;SDS011;10522;52.198;9.890;2024-03-17T08:43:35;13.03;;;5.50;;
20721;SDS011;10522;52.198;9.890;2024-03-17T08:46:06;11.77;;;5.50;;
20721;SDS011;10522;52.198;9.890;2024-03-17T08:48:34;14.00;;;4.93;;
20721;SDS011;10522;52.198;9.890;2024-03-17T08:51:01;13.77;;;5.97;;
20721;SDS011;10522;52.198;9.890;2024-03-17T08:53:28;14.10;;;5.37;;
20721;SDS011;10522;52.198;9.890;2024-03-17T08:55:55;10.47;;;4.50;;
20721;SDS011;10522;52.198;9.890;2024-03-17T08:58:21;16.77;;;4.77;;
20721;SDS011;10522;52.198;9.890;2024-03-17T09:00:48;13.87;;;5.07;;
20721;SDS011;10522;52.198;9.890;2024-03-17T09:03:14;12.33;;;4.00;;
20721;SDS011;10522;52.198;9.890;2024-03-17T09:05:40;9.63;;;4.30;;
20721;SDS011;10522;52.198;9.890;2024-03-17T09:10:47;10.43;;;4.70;;
20721;SDS011;10522;52.198;9.890;2024-03-17T09:13:18;18.63;;;5.63;;
20721;SDS011;10522;52.198;9.890;2024-03-17T09:15:55;8.73;;;3.63;;
20721;SDS011;10522;52.198;9.890;2024-03-17T09:18:25;14.00;;;4.70;;
20721;SDS011;10522;52.198;9.890;2024-03-17T09:23:30;10.33;;;3.80;;
20721;SDS011;10522;52.198;9.890;2024-03-17T09:26:07;12.40;;;4.30;;
20721;SDS011;10522;52.198;9.890;2024-03-17T09:28:37;12.37;;;3.90;;
20721;SDS011;10522;52.198;9.890;2024-03-17T09:31:06;15.83;;;4.17;;
20721;SDS011;10522;52.198;9.890;2024-03-17T09:33:33;13.13;;;4.67;;
20721;SDS011;10522;52.198;9.890;2024-03-17T09:36:01;11.40;;;5.00;;
20721;SDS011;10522;52.198;9.890;2024-03-17T09:38:33;10.57;;;4.50;;
20721;SDS011;10522;52.198;9.890;2024-03-17T09:41:00;12.67;;;4.00;;
20721;SDS011;10522;52.198;9.890;2024-03-17T09:43:28;13.27;;;4.43;;
20721;SDS011;10522;52.198;9.890;2024-03-17T09:45:58;11.53;;;4.97;;
20721;SDS011;10522;52.198;9.890;2024-03-17T09:48:24;15.53;;;5.07;;
20721;SDS011;10522;52.198;9.890;2024-03-17T09:50:53;13.63;;;4.87;;
20721;SDS011;10522;52.198;9.890;2024-03-17T09:53:24;13.80;;;3.80;;
20721;SDS011;10522;52.198;9.890;2024-03-17T09:55:58;15.63;;;4.17;;
20721;SDS011;10522;52.198;9.890;2024-03-17T09:58:25;16.33;;;4.50;;
20721;SDS011;10522;52.198;9.890;2024-03-17T10:00:51;13.93;;;4.73;;
20721;SDS011;10522;52.198;9.890;2024-03-17T10:06:11;16.80;;;5.80;;
20721;SDS011;10522;52.198;9.890;2024-03-17T10:08:45;15.03;;;4.40;;
20721;SDS011;10522;52.198;9.890;2024-03-17T10:11:22;13.83;;;5.20;;
20721;SDS011;10522;52.198;9.890;2024-03-17T10:14:01;16.73;;;5.57;;
20721;SDS011;10522;52.198;9.890;2024-03-17T10:16:28;16.70;;;5.17;;
20721;SDS011;10522;52.198;9.890;2024-03-17T10:19:11;11.93;;;4.73;;
20721;SDS011;10522;52.198;9.890;2024-03-17T10:21:39;12.03;;;4.40;;
20721;SDS011;10522;52.198;9.890;2024-03-17T10:24:27;15.97;;;4.73;;
20721;SDS011;10522;52.198;9.890;2024-03-17T10:26:57;10.60;;;4.63;;
20721;SDS011;10522;52.198;9.890;2024-03-17T10:29:25;14.67;;;5.17;;
20721;SDS011;10522;52.198;9.890;2024-03-17T10:32:12;14.80;;;5.10;;
20721;SDS011;10522;52.198;9.890;2024-03-17T10:34:39;11.93;;;4.90;;
20721;SDS011;10522;52.198;9.890;2024-03-17T10:37:18;12.67;;;5.07;;
20721;SDS011;10522;52.198;9.890;2024-03-17T10:39:48;10.27;;;5.07;;
20721;SDS011;10522;52.198;9.890;2024-03-17T10:42:20;16.90;;;5.47;;
20721;SDS011;10522;52.198;9.890;2024-03-17T10:44:51;11.90;;;4.60;;
20721;SDS011;10522;52.198;9.890;2024-03-17T10:49:50;11.90;;;5.23;;
20721;SDS011;10522;52.198;9.890;2024-03-17T10:52:17;14.20;;;6.00;;
20721;SDS011;10522;52.198;9.890;2024-03-17T10:54:50;11.63;;;5.13;;
20721;SDS011;10522;52.198;9.890;2024-03-17T11:00:04;11.93;;;5.67;;
20721;SDS011;10522;52.198;9.890;2024-03-17T11:02:33;10.60;;;5.70;;
20721;SDS011;10522;52.198;9.890;2024-03-17T11:05:03;12.63;;;5.87;;
20721;SDS011;10522;52.198;9.890;2024-03-17T11:07:32;14.07;;;5.30;;
20721;SDS011;10522;52.198;9.890;2024-03-17T11:10:02;14.33;;;5.50;;
20721;SDS011;10522;52.198;9.890;2024-03-17T11:12:43;10.00;;;5.37;;
20721;SDS011;10522;52.198;9.890;2024-03-17T11:17:44;9.93;;;5.63;;
20721;SDS011;10522;52.198;9.890;2024-03-17T11:20:23;12.87;;;5.77;;
20721;SDS011;10522;52.198;9.890;2024-03-17T11:22:55;10.43;;;5.20;;
20721;SDS011;10522;52.198;9.890;2024-03-17T11:27:51;9.80;;;4.80;;
20721;SDS011;10522;52.198;9.890;2024-03-17T11:39:01;14.20;;;5.33;;
20721;SDS011;10522;52.198;9.890;2024-03-17T11:47:04;10.63;;;5.50;;
20721;SDS011;10522;52.198;9.890;2024-03-17T11:49:40;10.77;;;5.53;;
20721;SDS011;10522;52.198;9.890;2024-03-17T11:54:44;9.00;;;5.27;;
20721;SDS011;10522;52.198;9.890;2024-03-17T11:57:14;13.27;;;6.37;;
20721;SDS011;10522;52.198;9.890;2024-03-17T11:59:47;10.03;;;5.30;;
20721;SDS011;10522;52.198;9.890;2024-03-17T12:02:20;11.03;;;6.33;;
20721;SDS011;10522;52.198;9.890;2024-03-17T12:04:48;14.20;;;6.33;;
20721;SDS011;10522;52.198;9.890;2024-03-17T12:07:18;12.10;;;6.17;;
20721;SDS011;10522;52.198;9.890;2024-03-17T12:09:49;9.90;;;5.43;;
20721;SDS011;10522;52.198;9.890;2024-03-17T12:12:22;11.77;;;5.67;;
20721;SDS011;10522;52.198;9.890;2024-03-17T12:15:00;9.40;;;5.80;;
20721;SDS011;10522;52.198;9.890;2024-03-17T12:17:26;11.47;;;5.97;;
20721;SDS011;10522;52.198;9.890;2024-03-17T12:19:55;9.63;;;5.80;;
20721;SDS011;10522;52.198;9.890;2024-03-17T12:22:22;12.07;;;5.60;;
20721;SDS011;10522;52.198;9.890;2024-03-17T12:24:51;10.77;;;6.40;;
20721;SDS011;10522;52.198;9.890;2024-03-17T12:27:25;8.47;;;5.67;;
20721;SDS011;10522;52.198;9.890;2024-03-17T12:29:51;8.87;;;6.17;;
20721;SDS011;10522;52.198;9.890;2024-03-17T12:32:18;9.07;;;5.27;;
20721;SDS011;10522;52.198;9.890;2024-03-17T12:34:47;12.47;;;5.87;;
20721;SDS011;10522;52.198;9.890;2024-03-17T12:37:19;9.50;;;5.97;;
20721;SDS011;10522;52.198;9.890;2024-03-17T12:39:46;10.70;;;5.40;;
20721;SDS011;10522;52.198;9.890;2024-03-17T12:42:13;11.60;;;5.67;;
20721;SDS011;10522;52.198;9.890;2024-03-17T12:44:54;10.23;;;5.63;;
20721;SDS011;10522;52.198;9.890;2024-03-17T12:47:21;14.93;;;6.30;;
20721;SDS011;10522;52.198;9.890;2024-03-17T12:49:54;16.50;;;6.30;;
20721;SDS011;10522;52.198;9.890;2024-03-17T12:52:25;17.30;;;6.93;;
20721;SDS011;10522;52.198;9.890;2024-03-17T12:55:04;14.57;;;6.67;;
20721;SDS011;10522;52.198;9.890;2024-03-17T12:57:50;10.03;;;6.10;;
20721;SDS011;10522;52.198;9.890;2024-03-17T13:00:47;9.67;;;5.00;;
20721;SDS011;10522;52.198;9.890;2024-03-17T13:03:26;12.47;;;6.03;;
20721;SDS011;10522;52.198;9.890;2024-03-17T13:05:54;10.13;;;5.67;;
20721;SDS011;10522;52.198;9.890;2024-03-17T13:08:19;9.00;;;5.60;;
20721;SDS011;10522;52.198;9.890;2024-03-17T13:10:46;10.77;;;6.43;;
20721;SDS011;10522;52.198;9.890;2024-03-17T13:13:12;11.90;;;5.60;;
20721;SDS011;10522;52.198;9.890;2024-03-17T13:15:41;8.93;;;5.73;;
20721;SDS011;10522;52.198;9.890;2024-03-17T13:18:07;9.63;;;5.83;;
20721;SDS011;10522;52.198;9.890;2024-03-17T13:20:33;13.43;;;6.37;;
20721;SDS011;10522;52.198;9.890;2024-03-17T13:23:00;13.30;;;6.43;;
20721;SDS011;10522;52.198;9.890;2024-03-17T13:25:29;10.07;;;5.87;;
20721;SDS011;10522;52.198;9.890;2024-03-17T13:28:00;12.87;;;6.40;;
20721;SDS011;10522;52.198;9.890;2024-03-17T13:30:26;10.33;;;5.90;;
20721;SDS011;10522;52.198;9.890;2024-03-17T13:32:53;8.40;;;5.37;;
20721;SDS011;10522;52.198;9.890;2024-03-17T13:35:29;11.90;;;6.07;;
20721;SDS011;10522;52.198;9.890;2024-03-17T13:37:55;13.93;;;6.33;;
20721;SDS011;10522;52.198;9.890;2024-03-17T13:40:26;12.57;;;5.80;;
20721;SDS011;10522;52.198;9.890;2024-03-17T13:42:54;11.77;;;6.43;;
20721;SDS011;10522;52.198;9.890;2024-03-17T13:55:42;10.80;;;5.63;;
20721;SDS011;10522;52.198;9.890;2024-03-17T13:58:07;11.33;;;6.13;;
20721;SDS011;10522;52.198;9.890;2024-03-17T14:00:33;10.70;;;6.30;;
20721;SDS011;10522;52.198;9.890;2024-03-17T14:03:03;12.77;;;6.00;;
20721;SDS011;10522;52.198;9.890;2024-03-17T14:05:30;11.27;;;5.93;;
20721;SDS011;10522;52.198;9.890;2024-03-17T14:07:59;11.60;;;5.87;;
20721;SDS011;10522;52.198;9.890;2024-03-17T14:10:25;12.57;;;6.30;;
20721;SDS011;10522;52.198;9.890;2024-03-17T14:12:51;11.67;;;6.27;;
20721;SDS011;10522;52.198;9.890;2024-03-17T14:15:18;13.20;;;6.00;;
20721;SDS011;10522;52.198;9.890;2024-03-17T14:17:44;12.03;;;6.13;;
20721;SDS011;10522;52.198;9.890;2024-03-17T14:20:12;9.30;;;5.27;;
20721;SDS011;10522;52.198;9.890;2024-03-17T14:22:39;10.73;;;5.87;;
20721;SDS011;10522;52.198;9.890;2024-03-17T14:25:10;13.27;;;6.10;;
20721;SDS011;10522;52.198;9.890;2024-03-17T14:27:44;12.10;;;5.90;;
20721;SDS011;10522;52.198;9.890;2024-03-17T14:30:13;10.33;;;5.50;;
20721;SDS011;10522;52.198;9.890;2024-03-17T14:32:42;10.33;;;5.80;;
20721;SDS011;10522;52.198;9.890;2024-03-17T14:35:10;12.30;;;6.37;;
20721;SDS011;10522;52.198;9.890;2024-03-17T14:37:40;12.47;;;6.70;;
20721;SDS011;10522;52.198;9.890;2024-03-17T14:40:08;12.03;;;5.97;;
20721;SDS011;10522;52.198;9.890;2024-03-17T14:42:40;9.67;;;6.77;;
20721;SDS011;10522;52.198;9.890;2024-03-17T14:45:06;11.77;;;5.37;;
20721;SDS011;10522;52.198;9.890;2024-03-17T14:47:33;11.57;;;6.20;;
20721;SDS011;10522;52.198;9.890;2024-03-17T14:49:59;11.33;;;6.10;;
20721;SDS011;10522;52.198;9.890;2024-03-17T14:52:24;10.70;;;5.43;;
20721;SDS011;10522;52.198;9.890;2024-03-17T14:54:51;13.77;;;6.27;;
20721;SDS011;10522;52.198;9.890;2024-03-17T14:57:19;11.10;;;5.67;;
20721;SDS011;10522;52.198;9.890;2024-03-17T14:59:46;12.83;;;6.33;;
20721;SDS011;10522;52.198;9.890;2024-03-17T15:02:11;14.07;;;6.03;;
20721;SDS011;10522;52.198;9.890;2024-03-17T15:04:37;11.23;;;5.33;;
20721;SDS011;10522;52.198;9.890;2024-03-17T15:07:03;10.20;;;5.73;;
20721;SDS011;10522;52.198;9.890;2024-03-17T15:09:28;10.70;;;6.30;;
20721;SDS011;10522;52.198;9.890;2024-03-17T15:11:54;8.63;;;5.90;;
20721;SDS011;10522;52.198;9.890;2024-03-17T15:14:20;11.07;;;5.63;;
20721;SDS011;10522;52.198;9.890;2024-03-17T15:16:45;13.23;;;5.90;;
20721;SDS011;10522;52.198;9.890;2024-03-17T15:19:11;10.10;;;6.07;;
20721;SDS011;10522;52.198;9.890;2024-03-17T15:21:37;12.63;;;5.40;;
20721;SDS011;10522;52.198;9.890;2024-03-17T15:24:02;9.43;;;5.67;;
20721;SDS011;10522;52.198;9.890;2024-03-17T15:26:28;10.13;;;5.90;;
20721;SDS011;10522;52.198;9.890;2024-03-17T15:28:54;12.90;;;5.60;;
20721;SDS011;10522;52.198;9.890;2024-03-17T15:31:20;10.03;;;6.30;;
20721;SDS011;10522;52.198;9.890;2024-03-17T15:33:49;10.93;;;5.80;;